createdAt,value
2018-12-25T00:00:12.096Z,5.56
2018-12-25T00:01:12.131Z,5.59
2018-12-25T00:02:12.113Z,5.59
2018-12-25T00:03:12.077Z,5.57
2018-12-25T00:04:12.051Z,5.62
2018-12-25T00:05:12.048Z,5.59
2018-12-25T00:06:13.907Z,5.59
2018-12-25T00:07:13.934Z,5.66
2018-12-25T00:08:12.060Z,5.66
2018-12-25T00:09:12.010Z,5.65
2018-12-25T00:10:12.016Z,5.76
2018-12-25T00:11:11.984Z,5.64
2018-12-25T00:12:12.095Z,5.71
2018-12-25T00:13:11.971Z,5.72
2018-12-25T00:15:24.585Z,5.62
2018-12-25T00:16:24.068Z,5.69
2018-12-25T00:17:24.054Z,5.71
2018-12-25T00:18:23.534Z,5.72
2018-12-25T00:24:05.044Z,5.79
2018-12-25T00:25:05.016Z,5.68
2018-12-25T00:26:06.976Z,5.76
2018-12-25T00:29:02.583Z,5.82
2018-12-25T00:30:01.454Z,5.75
2018-12-25T00:31:05.660Z,5.82
2018-12-25T00:32:01.029Z,5.79
2018-12-25T00:34:44.241Z,5.79
2018-12-25T00:35:44.434Z,5.90
2018-12-25T00:36:44.218Z,5.83
2018-12-25T00:37:44.206Z,5.82
2018-12-25T00:38:44.196Z,5.82
2018-12-25T00:39:45.012Z,5.89
2018-12-25T00:40:44.171Z,5.89
2018-12-25T00:41:44.175Z,5.83
2018-12-25T00:42:44.196Z,5.87
2018-12-25T00:43:44.147Z,5.90
2018-12-25T00:44:44.135Z,5.87
2018-12-25T00:45:44.119Z,5.84
2018-12-25T00:46:44.128Z,5.76
2018-12-25T00:47:44.110Z,5.90
2018-12-25T00:48:44.089Z,5.79
2018-12-25T00:49:44.078Z,5.83
2018-12-25T00:50:44.067Z,5.83
2018-12-25T00:51:44.074Z,5.83
2018-12-25T00:52:44.051Z,5.84
2018-12-25T00:53:44.031Z,5.87
2018-12-25T00:54:44.058Z,5.89
2018-12-25T00:55:44.272Z,5.84
2018-12-25T00:56:43.993Z,5.86
2018-12-25T00:57:44.017Z,5.84
2018-12-25T00:58:43.980Z,5.82
2018-12-25T00:59:43.999Z,5.82
2018-12-25T01:00:43.950Z,5.82
2018-12-25T01:01:43.969Z,5.84
2018-12-25T01:02:43.937Z,5.83
2018-12-25T01:03:45.570Z,5.83
2018-12-25T01:04:43.919Z,5.79
2018-12-25T01:05:43.906Z,5.80
2018-12-25T01:06:43.906Z,5.86
2018-12-25T01:07:43.897Z,5.90
2018-12-25T01:08:43.879Z,5.94
2018-12-25T01:09:43.871Z,5.89
2018-12-25T01:10:43.872Z,5.91
2018-12-25T01:11:43.853Z,5.90
2018-12-25T01:12:43.852Z,5.99
2018-12-25T01:13:43.825Z,5.94
2018-12-25T01:14:43.823Z,5.91
2018-12-25T01:15:43.802Z,5.89
2018-12-25T01:16:43.841Z,5.89
2018-12-25T01:17:43.777Z,5.98
2018-12-25T01:18:43.770Z,5.91
2018-12-25T01:19:43.782Z,5.90
2018-12-25T01:20:45.546Z,5.94
2018-12-25T01:21:45.544Z,5.90
2018-12-25T01:22:43.781Z,6.02
2018-12-25T01:23:43.713Z,5.86
2018-12-25T01:24:43.727Z,5.91
2018-12-25T01:25:43.688Z,5.94
2018-12-25T01:26:43.681Z,5.87
2018-12-25T01:27:43.673Z,6.02
2018-12-25T01:28:43.662Z,5.91
2018-12-25T01:29:43.650Z,5.98
2018-12-25T01:30:43.647Z,5.91
2018-12-25T01:31:45.566Z,5.97
2018-12-25T01:32:43.629Z,6.04
2018-12-25T01:33:43.616Z,5.97
2018-12-25T01:34:43.596Z,5.94
2018-12-25T01:35:43.639Z,5.93
2018-12-25T01:36:43.601Z,5.93
2018-12-25T01:37:43.578Z,5.97
2018-12-25T01:38:47.018Z,5.89
2018-12-25T01:39:43.559Z,5.93
2018-12-25T01:40:43.546Z,5.91
2018-12-25T01:41:43.531Z,6.01
2018-12-25T01:42:43.528Z,5.89
2018-12-25T01:43:43.528Z,5.89
2018-12-25T01:44:43.498Z,5.91
2018-12-25T01:45:43.503Z,5.98
2018-12-25T01:46:43.470Z,5.94
2018-12-25T01:47:43.461Z,5.97
2018-12-25T01:48:43.445Z,5.93
2018-12-25T01:49:43.447Z,5.93
2018-12-25T01:50:43.438Z,5.93
2018-12-25T01:51:43.420Z,5.97
2018-12-25T01:52:43.401Z,5.98
2018-12-25T01:53:43.415Z,5.99
2018-12-25T01:54:43.385Z,5.94
2018-12-25T01:55:43.368Z,5.94
2018-12-25T01:56:43.359Z,5.99
2018-12-25T01:57:43.380Z,5.91
2018-12-25T01:58:43.366Z,6.01
2018-12-25T01:59:43.336Z,5.97
2018-12-25T02:00:45.057Z,5.94
2018-12-25T02:01:43.321Z,5.97
2018-12-25T02:02:43.311Z,5.99
2018-12-25T02:03:51.608Z,5.97
2018-12-25T02:04:43.283Z,6.05
2018-12-25T02:05:52.099Z,6.01
2018-12-25T02:06:43.246Z,6.04
2018-12-25T02:07:43.256Z,6.02
2018-12-25T02:08:43.258Z,5.93
2018-12-25T02:09:43.259Z,5.93
2018-12-25T02:10:44.097Z,6.04
2018-12-25T02:11:43.200Z,6.01
2018-12-25T02:12:43.193Z,6.07
2018-12-25T02:13:43.180Z,6.01
2018-12-25T02:14:43.169Z,6.05
2018-12-25T02:15:43.187Z,6.07
2018-12-25T02:16:43.144Z,6.16
2018-12-25T02:17:43.132Z,6.11
2018-12-25T02:18:43.142Z,6.07
2018-12-25T02:19:43.112Z,6.14
2018-12-25T02:20:44.096Z,6.12
2018-12-25T02:21:43.113Z,6.12
2018-12-25T02:22:43.077Z,6.11
2018-12-25T02:23:43.599Z,6.11
2018-12-25T02:24:43.696Z,6.09
2018-12-25T02:25:43.062Z,6.09
2018-12-25T02:26:43.593Z,6.22
2018-12-25T02:27:43.052Z,6.24
2018-12-25T02:29:37.626Z,6.11
2018-12-25T02:30:37.629Z,6.27
2018-12-25T02:31:39.121Z,6.27
2018-12-25T02:32:38.599Z,6.22
2018-12-25T02:33:37.586Z,6.30
2018-12-25T02:34:40.587Z,6.22
2018-12-25T02:35:39.118Z,6.27
2018-12-25T02:36:37.571Z,6.20
2018-12-25T02:37:37.558Z,6.20
2018-12-25T02:39:31.114Z,6.22
2018-12-25T02:40:30.522Z,6.19
2018-12-25T02:41:32.140Z,6.17
2018-12-25T02:42:30.451Z,6.19
2018-12-25T02:43:30.433Z,6.12
2018-12-25T02:44:30.433Z,6.09
2018-12-25T02:45:31.103Z,6.19
2018-12-25T02:46:31.111Z,6.17
2018-12-25T02:47:30.426Z,6.17
2018-12-25T02:48:30.403Z,6.14
2018-12-25T02:49:30.367Z,6.07
2018-12-25T02:50:30.393Z,6.08
2018-12-25T02:51:30.381Z,6.19
2018-12-25T02:52:30.357Z,6.19
2018-12-25T02:53:30.352Z,6.19
2018-12-25T02:54:31.124Z,6.20
2018-12-25T02:55:32.153Z,6.11
2018-12-25T02:56:33.168Z,6.26
2018-12-25T02:57:33.141Z,6.26
2018-12-25T02:58:30.306Z,6.26
2018-12-25T02:59:30.291Z,6.24
2018-12-25T03:00:30.283Z,6.09
2018-12-25T03:01:30.255Z,6.28
2018-12-25T03:02:30.271Z,6.31
2018-12-25T03:04:54.259Z,6.27
2018-12-25T03:06:04.682Z,6.26
2018-12-25T03:07:04.689Z,6.31
2018-12-25T03:08:02.023Z,6.27
2018-12-25T03:09:02.495Z,6.35
2018-12-25T03:10:03.027Z,6.31
2018-12-25T03:11:02.483Z,6.31
2018-12-25T03:12:02.686Z,6.27
2018-12-25T03:12:54.166Z,6.31
2018-12-25T03:13:54.853Z,6.35
2018-12-25T03:14:54.175Z,6.31
2018-12-25T03:15:54.149Z,6.30
2018-12-25T03:16:54.145Z,6.33
2018-12-25T03:17:54.129Z,6.26
2018-12-25T03:18:54.107Z,6.36
2018-12-25T03:19:59.854Z,6.28
2018-12-25T03:20:55.106Z,6.24
2018-12-25T03:21:54.072Z,6.26
2018-12-25T03:22:54.088Z,6.31
2018-12-25T03:23:54.053Z,6.27
2018-12-25T03:24:54.037Z,6.28
2018-12-25T03:25:54.057Z,6.36
2018-12-25T03:26:54.029Z,6.30
2018-12-25T03:27:54.018Z,6.35
2018-12-25T03:29:01.902Z,6.30
2018-12-25T03:29:55.884Z,6.35
2018-12-25T03:30:54.006Z,6.28
2018-12-25T03:31:54.889Z,6.35
2018-12-25T03:32:56.879Z,6.36
2018-12-25T03:33:53.960Z,6.28
2018-12-25T03:34:53.949Z,6.30
2018-12-25T03:35:53.927Z,6.28
2018-12-25T03:36:53.918Z,6.38
2018-12-25T03:38:47.698Z,6.30
2018-12-25T03:39:47.667Z,6.30
2018-12-25T03:40:50.486Z,6.35
2018-12-25T03:41:47.659Z,6.31
2018-12-25T03:42:47.649Z,6.38
2018-12-25T03:43:47.634Z,6.28
2018-12-25T03:44:47.619Z,6.38
2018-12-25T03:45:47.621Z,6.31
2018-12-25T03:46:47.601Z,6.33
2018-12-25T03:47:48.499Z,6.28
2018-12-25T03:48:47.586Z,6.33
2018-12-25T03:49:47.573Z,6.30
2018-12-25T03:50:48.488Z,6.35
2018-12-25T03:51:48.486Z,6.33
2018-12-25T03:52:47.556Z,6.26
2018-12-25T03:53:48.530Z,6.22
2018-12-25T03:54:47.505Z,6.36
2018-12-25T03:55:47.615Z,6.33
2018-12-25T03:56:47.493Z,6.36
2018-12-25T03:57:49.020Z,6.35
2018-12-25T03:58:47.492Z,6.22
2018-12-25T03:59:47.982Z,6.27
2018-12-25T04:00:49.038Z,6.28
2018-12-25T04:01:47.461Z,6.20
2018-12-25T04:02:47.445Z,6.31
2018-12-25T04:03:47.430Z,6.31
2018-12-25T04:04:47.993Z,6.30
2018-12-25T04:05:47.395Z,6.26
2018-12-25T04:06:47.400Z,6.36
2018-12-25T04:07:47.370Z,6.30
2018-12-25T04:08:47.378Z,6.36
2018-12-25T04:09:47.386Z,6.41
2018-12-25T04:10:47.331Z,6.39
2018-12-25T04:11:47.325Z,6.39
2018-12-25T04:12:47.311Z,6.41
2018-12-25T04:13:47.335Z,6.38
2018-12-25T04:14:47.986Z,6.45
2018-12-25T04:15:47.294Z,6.36
2018-12-25T04:16:47.278Z,6.36
2018-12-25T04:17:47.269Z,6.35
2018-12-25T04:18:49.010Z,6.42
2018-12-25T04:19:47.249Z,6.41
2018-12-25T04:20:48.002Z,6.44
2018-12-25T04:21:47.261Z,6.44
2018-12-25T04:22:47.214Z,6.44
2018-12-25T04:23:47.203Z,6.33
2018-12-25T04:24:47.185Z,6.44
2018-12-25T04:25:50.025Z,6.42
2018-12-25T04:26:47.973Z,6.36
2018-12-25T04:27:47.179Z,6.36
2018-12-25T04:28:47.140Z,6.42
2018-12-25T04:29:47.165Z,6.42
2018-12-25T04:30:47.160Z,6.42
2018-12-25T04:31:47.128Z,6.42
2018-12-25T04:32:47.149Z,6.41
2018-12-25T04:33:47.103Z,6.46
2018-12-25T04:34:47.084Z,6.44
2018-12-25T04:35:47.074Z,6.38
2018-12-25T04:36:49.009Z,6.41
2018-12-25T04:37:47.053Z,6.39
2018-12-25T04:38:49.032Z,6.38
2018-12-25T04:39:48.029Z,6.41
2018-12-25T04:40:47.022Z,6.39
2018-12-25T04:41:47.037Z,6.42
2018-12-25T04:42:47.054Z,6.44
2018-12-25T04:43:47.034Z,6.45
2018-12-25T04:44:46.981Z,6.46
2018-12-25T04:45:46.960Z,6.42
2018-12-25T04:46:46.959Z,6.45
2018-12-25T04:47:49.493Z,6.41
2018-12-25T04:48:47.483Z,6.49
2018-12-25T04:49:46.931Z,6.44
2018-12-25T04:50:46.919Z,6.36
2018-12-25T04:51:46.901Z,6.42
2018-12-25T04:52:46.886Z,6.44
2018-12-25T04:53:46.885Z,6.39
2018-12-25T04:54:46.874Z,6.33
2018-12-25T04:55:46.855Z,6.39
2018-12-25T04:56:46.835Z,6.42
2018-12-25T04:57:46.871Z,6.39
2018-12-25T04:58:46.823Z,6.41
2018-12-25T04:59:46.816Z,6.39
2018-12-25T05:00:46.842Z,6.39
2018-12-25T05:01:46.817Z,6.31
2018-12-25T05:02:46.773Z,6.39
2018-12-25T05:03:46.779Z,6.33
2018-12-25T05:04:46.767Z,6.30
2018-12-25T05:05:46.755Z,6.39
2018-12-25T05:06:46.732Z,6.33
2018-12-25T05:07:46.720Z,6.35
2018-12-25T05:08:46.725Z,6.38
2018-12-25T05:09:47.497Z,6.31
2018-12-25T05:10:46.709Z,6.24
2018-12-25T05:11:46.674Z,6.26
2018-12-25T05:12:46.676Z,6.24
2018-12-25T05:13:46.662Z,6.22
2018-12-25T05:14:46.644Z,6.33
2018-12-25T05:15:46.663Z,6.38
2018-12-25T05:16:47.513Z,6.33
2018-12-25T05:17:46.640Z,6.27
2018-12-25T05:18:46.630Z,6.28
2018-12-25T05:19:46.591Z,6.30
2018-12-25T05:20:46.593Z,6.31
2018-12-25T05:21:46.600Z,6.26
2018-12-25T05:22:47.564Z,6.26
2018-12-25T05:23:46.560Z,6.27
2018-12-25T05:24:46.539Z,6.22
2018-12-25T05:25:47.523Z,6.09
2018-12-25T05:26:49.005Z,6.17
2018-12-25T05:27:46.514Z,6.22
2018-12-25T05:28:46.487Z,6.19
2018-12-25T05:29:46.494Z,6.26
2018-12-25T05:30:47.059Z,6.24
2018-12-25T05:31:48.043Z,6.19
2018-12-25T05:32:46.467Z,6.08
2018-12-25T05:33:46.455Z,6.07
2018-12-25T05:34:46.448Z,6.20
2018-12-25T05:35:47.005Z,6.17
2018-12-25T05:36:46.417Z,6.16
2018-12-25T05:37:46.393Z,6.09
2018-12-25T05:38:46.386Z,6.20
2018-12-25T05:39:48.024Z,6.16
2018-12-25T05:40:47.023Z,6.24
2018-12-25T05:41:46.364Z,6.16
2018-12-25T05:42:47.044Z,6.12
2018-12-25T05:43:46.351Z,6.14
2018-12-25T05:44:47.000Z,6.16
2018-12-25T05:45:46.350Z,6.16
2018-12-25T05:46:46.296Z,6.19
2018-12-25T05:47:46.334Z,6.14
2018-12-25T05:48:46.298Z,6.19
2018-12-25T05:49:46.262Z,6.20
2018-12-25T05:50:46.841Z,6.16
2018-12-25T05:52:40.896Z,6.12
2018-12-25T05:53:40.871Z,6.11
2018-12-25T05:54:40.881Z,6.14
2018-12-25T05:55:40.866Z,6.12
2018-12-25T05:56:40.853Z,6.11
2018-12-25T05:57:40.843Z,6.09
2018-12-25T05:58:42.833Z,6.16
2018-12-25T05:59:41.823Z,6.11
2018-12-25T06:00:40.802Z,6.14
2018-12-25T06:01:40.799Z,6.12
2018-12-25T06:02:40.794Z,6.12
2018-12-25T06:03:41.315Z,6.04
2018-12-25T06:04:40.763Z,6.05
2018-12-25T06:05:40.746Z,6.08
2018-12-25T06:06:40.751Z,6.14
2018-12-25T06:07:40.730Z,6.11
2018-12-25T06:08:42.676Z,6.17
2018-12-25T06:09:40.715Z,6.11
2018-12-25T06:10:40.741Z,6.11
2018-12-25T06:11:40.697Z,6.17
2018-12-25T06:12:40.683Z,6.11
2018-12-25T06:13:40.688Z,6.11
2018-12-25T06:14:40.679Z,6.11
2018-12-25T06:15:40.657Z,6.14
2018-12-25T06:16:40.649Z,6.17
2018-12-25T06:17:40.659Z,6.16
2018-12-25T06:18:40.631Z,6.11
2018-12-25T06:19:49.110Z,6.11
2018-12-25T06:20:55.113Z,6.14
2018-12-25T06:24:02.630Z,6.12
2018-12-25T06:26:13.525Z,6.14
2018-12-25T06:27:13.492Z,6.09
2018-12-25T06:28:13.484Z,6.12
2018-12-25T06:29:13.469Z,6.14
2018-12-25T06:30:13.455Z,6.17
2018-12-25T06:31:13.525Z,6.24
2018-12-25T06:32:13.549Z,6.16
2018-12-25T06:33:15.098Z,6.08
2018-12-25T06:34:13.439Z,6.22
2018-12-25T06:35:14.088Z,6.17
2018-12-25T06:36:16.082Z,6.27
2018-12-25T06:37:14.064Z,6.26
2018-12-25T06:38:15.137Z,6.11
2018-12-25T06:39:14.354Z,6.26
2018-12-25T06:40:13.379Z,6.22
2018-12-25T06:41:13.335Z,6.09
2018-12-25T06:42:13.356Z,6.24
2018-12-25T06:43:13.319Z,6.22
2018-12-25T06:44:14.063Z,6.26
2018-12-25T06:45:13.302Z,6.14
2018-12-25T06:46:13.282Z,6.24
2018-12-25T06:47:13.274Z,6.22
2018-12-25T06:48:13.277Z,6.31
2018-12-25T06:49:13.265Z,6.20
2018-12-25T06:50:14.231Z,6.24
2018-12-25T06:51:13.243Z,6.22
2018-12-25T06:52:13.228Z,6.24
2018-12-25T06:53:13.215Z,6.20
2018-12-25T06:54:13.236Z,6.19
2018-12-25T06:55:13.193Z,6.16
2018-12-25T06:56:13.179Z,6.12
2018-12-25T06:57:13.208Z,6.09
2018-12-25T06:58:14.088Z,6.26
2018-12-25T06:59:14.081Z,6.09
2018-12-25T07:00:13.139Z,6.11
2018-12-25T07:01:13.134Z,6.24
2018-12-25T07:02:14.087Z,6.19
2018-12-25T07:03:13.106Z,6.30
2018-12-25T07:04:14.641Z,6.22
2018-12-25T07:05:13.081Z,6.22
2018-12-25T07:06:14.615Z,6.17
2018-12-25T07:07:14.616Z,6.22
2018-12-25T07:08:13.585Z,6.24
2018-12-25T07:09:13.576Z,6.26
2018-12-25T07:10:13.037Z,6.19
2018-12-25T07:11:15.591Z,6.11
2018-12-25T07:12:13.041Z,6.24
2018-12-25T07:13:13.012Z,6.24
2018-12-25T07:14:13.005Z,6.26
2018-12-25T07:15:12.992Z,6.30
2018-12-25T07:16:15.576Z,6.26
2018-12-25T07:17:14.634Z,6.27
2018-12-25T07:18:13.590Z,6.26
2018-12-25T07:19:12.926Z,6.27
2018-12-25T07:20:12.922Z,6.26
2018-12-25T07:21:12.902Z,6.22
2018-12-25T07:22:22.057Z,6.26
2018-12-25T07:23:24.695Z,6.26
2018-12-25T07:24:21.611Z,6.26
2018-12-25T07:25:21.115Z,6.26
2018-12-25T07:26:21.371Z,6.27
2018-12-25T07:27:21.109Z,6.22
2018-12-25T07:28:22.578Z,6.31
2018-12-25T07:29:21.868Z,6.30
2018-12-25T07:30:22.386Z,6.30
2018-12-25T07:31:12.806Z,6.35
2018-12-25T07:32:12.800Z,6.30
2018-12-25T07:33:12.776Z,6.26
2018-12-25T07:34:21.512Z,6.27
2018-12-25T07:35:12.756Z,6.22
2018-12-25T07:36:12.738Z,6.28
2018-12-25T07:37:12.726Z,6.22
2018-12-25T07:38:12.720Z,6.26
2018-12-25T07:39:13.480Z,6.28
2018-12-25T07:40:12.690Z,6.24
2018-12-25T07:41:12.698Z,6.14
2018-12-25T07:42:12.673Z,6.20
2018-12-25T07:43:12.680Z,6.20
2018-12-25T07:44:12.641Z,6.19
2018-12-25T07:45:12.658Z,6.24
2018-12-25T07:46:12.642Z,6.16
2018-12-25T07:47:12.630Z,6.05
2018-12-25T07:48:12.610Z,6.22
2018-12-25T07:49:13.512Z,6.22
2018-12-25T07:50:13.483Z,6.19
2018-12-25T07:51:20.497Z,6.24
2018-12-25T07:52:13.557Z,6.08
2018-12-25T07:53:12.577Z,6.24
2018-12-25T07:54:21.973Z,6.20
2018-12-25T07:55:23.672Z,6.22
2018-12-25T07:56:21.129Z,6.22
2018-12-25T07:57:20.639Z,6.26
2018-12-25T07:58:21.625Z,6.27
2018-12-25T07:59:19.711Z,6.35
2018-12-25T08:00:20.105Z,6.35
2018-12-25T08:01:20.597Z,6.39
2018-12-25T08:02:20.110Z,6.28
2018-12-25T08:03:12.441Z,6.26
2018-12-25T08:04:12.442Z,6.31
2018-12-25T08:05:12.436Z,6.24
2018-12-25T08:06:12.410Z,6.35
2018-12-25T08:07:12.403Z,6.28
2018-12-25T08:08:12.403Z,6.27
2018-12-25T08:09:12.401Z,6.31
2018-12-25T08:10:12.373Z,6.33
2018-12-25T08:11:12.377Z,6.30
2018-12-25T08:12:12.345Z,6.26
2018-12-25T08:13:12.343Z,6.30
2018-12-25T08:14:12.327Z,6.30
2018-12-25T08:15:12.319Z,6.33
2018-12-25T08:16:12.307Z,6.31
2018-12-25T08:17:12.295Z,6.35
2018-12-25T08:18:12.330Z,6.24
2018-12-25T08:19:12.294Z,6.39
2018-12-25T08:20:12.289Z,6.39
2018-12-25T08:21:12.290Z,6.41
2018-12-25T08:22:12.259Z,6.42
2018-12-25T08:23:12.244Z,6.38
2018-12-25T08:24:12.220Z,6.38
2018-12-25T08:25:12.253Z,6.46
2018-12-25T08:26:12.212Z,6.39
2018-12-25T08:27:12.196Z,6.39
2018-12-25T08:28:12.759Z,6.39
2018-12-25T08:29:12.178Z,6.46
2018-12-25T08:30:12.164Z,6.39
2018-12-25T08:31:12.147Z,6.44
2018-12-25T08:32:12.139Z,6.44
2018-12-25T08:33:12.135Z,6.41
2018-12-25T08:34:12.123Z,6.44
2018-12-25T08:35:12.783Z,6.39
2018-12-25T08:36:12.098Z,6.42
2018-12-25T08:37:12.767Z,6.36
2018-12-25T08:38:12.072Z,6.48
2018-12-25T08:39:12.060Z,6.52
2018-12-25T08:41:07.141Z,6.56
2018-12-25T08:42:06.594Z,6.52
2018-12-25T08:43:06.562Z,6.60
2018-12-25T08:44:06.649Z,6.64
2018-12-25T08:45:06.553Z,6.57
2018-12-25T08:46:06.534Z,6.67
2018-12-25T08:47:06.524Z,6.57
2018-12-25T08:48:06.514Z,6.57
2018-12-25T08:49:06.501Z,6.63
2018-12-25T08:50:06.508Z,6.63
2018-12-25T08:51:06.499Z,6.62
2018-12-25T08:52:06.498Z,6.60
2018-12-25T08:53:07.124Z,6.70
2018-12-25T08:54:06.455Z,6.64
2018-12-25T08:55:07.635Z,6.72
2018-12-25T08:57:00.047Z,6.77
2018-12-25T08:57:58.354Z,6.77
2018-12-25T08:58:58.355Z,6.89
2018-12-25T08:59:58.309Z,6.84
2018-12-25T09:00:58.275Z,6.87
2018-12-25T09:01:58.259Z,6.72
2018-12-25T09:02:58.264Z,6.79
2018-12-25T09:03:58.252Z,6.79
2018-12-25T09:04:58.227Z,6.77
2018-12-25T09:06:00.032Z,6.72
2018-12-25T09:06:58.201Z,6.79
2018-12-25T09:07:58.197Z,6.77
2018-12-25T09:08:58.189Z,6.74
2018-12-25T09:10:00.993Z,6.84
2018-12-25T09:10:58.196Z,6.79
2018-12-25T09:11:58.213Z,6.85
2018-12-25T09:12:58.195Z,6.88
2018-12-25T09:13:58.151Z,6.96
2018-12-25T09:14:58.168Z,6.99
2018-12-25T09:16:00.090Z,6.88
2018-12-25T09:16:58.121Z,7.05
2018-12-25T09:17:59.029Z,6.88
2018-12-25T09:18:58.135Z,7.00
2018-12-25T09:19:58.969Z,6.88
2018-12-25T09:20:59.046Z,6.92
2018-12-25T09:21:59.091Z,6.93
2018-12-25T09:22:59.590Z,6.89
2018-12-25T09:23:58.573Z,6.85
2018-12-25T09:24:58.058Z,6.96
2018-12-25T09:25:58.048Z,6.93
2018-12-25T09:26:58.506Z,6.99
2018-12-25T09:27:58.064Z,6.95
2018-12-25T09:28:58.054Z,6.93
2018-12-25T09:29:58.009Z,6.97
2018-12-25T09:30:57.968Z,6.88
2018-12-25T09:31:57.961Z,6.95
2018-12-25T09:32:57.968Z,6.99
2018-12-25T09:33:59.017Z,7.02
2018-12-25T09:34:57.943Z,6.96
2018-12-25T09:35:58.507Z,6.95
2018-12-25T09:36:57.903Z,7.05
2018-12-25T09:37:57.889Z,6.97
2018-12-25T09:38:57.898Z,7.05
2018-12-25T09:39:57.890Z,6.97
2018-12-25T09:40:57.868Z,7.03
2018-12-25T09:41:57.880Z,7.05
2018-12-25T09:43:00.528Z,7.13
2018-12-25T09:43:58.536Z,7.13
2018-12-25T09:44:57.811Z,7.05
2018-12-25T09:45:57.796Z,7.13
2018-12-25T09:46:58.526Z,7.10
2018-12-25T09:47:57.802Z,7.15
2018-12-25T09:48:58.514Z,7.15
2018-12-25T09:49:58.533Z,7.11
2018-12-25T09:50:58.518Z,7.13
2018-12-25T09:51:57.779Z,7.06
2018-12-25T09:52:57.728Z,7.20
2018-12-25T09:53:57.706Z,7.14
2018-12-25T09:54:57.708Z,7.24
2018-12-25T09:55:58.545Z,7.07
2018-12-25T09:57:01.522Z,7.17
2018-12-25T09:58:00.570Z,7.24
2018-12-25T09:58:59.559Z,7.21
2018-12-25T09:59:57.662Z,7.28
2018-12-25T10:00:57.654Z,7.29
2018-12-25T10:01:58.524Z,7.29
2018-12-25T10:02:57.614Z,7.35
2018-12-25T10:03:58.822Z,7.33
2018-12-25T10:04:59.589Z,7.39
2018-12-25T10:05:57.616Z,7.36
2018-12-25T10:06:57.557Z,7.40
2018-12-25T10:07:57.579Z,7.40
2018-12-25T10:08:57.550Z,7.47
2018-12-25T10:09:58.509Z,7.43
2018-12-25T10:10:57.526Z,7.40
2018-12-25T10:11:57.993Z,7.54
2018-12-25T10:12:57.505Z,7.45
2018-12-25T10:13:58.061Z,7.45
2018-12-25T10:14:59.054Z,7.42
2018-12-25T10:15:57.515Z,7.43
2018-12-25T10:17:00.083Z,7.45
2018-12-25T10:17:57.472Z,7.53
2018-12-25T10:18:57.503Z,7.57
2018-12-25T10:19:57.429Z,7.70
2018-12-25T10:20:57.412Z,7.57
2018-12-25T10:22:02.934Z,7.58
2018-12-25T10:22:58.388Z,7.57
2018-12-25T10:23:57.411Z,7.57
2018-12-25T10:24:57.378Z,7.51
2018-12-25T10:25:57.349Z,7.40
2018-12-25T10:26:57.368Z,7.45
2018-12-25T10:27:57.357Z,7.53
2018-12-25T10:29:52.922Z,7.60
2018-12-25T10:30:53.906Z,7.57
2018-12-25T10:31:54.426Z,7.57
2018-12-25T10:32:52.886Z,7.56
2018-12-25T10:33:53.888Z,7.56
2018-12-25T10:34:52.859Z,7.67
2018-12-25T10:35:52.841Z,7.70
2018-12-25T10:36:52.836Z,7.63
2018-12-25T10:37:53.407Z,7.70
2018-12-25T10:38:52.819Z,7.58
2018-12-25T10:39:52.836Z,7.54
2018-12-25T10:40:52.825Z,7.66
2018-12-25T10:41:52.819Z,7.77
2018-12-25T10:42:52.787Z,7.73
2018-12-25T10:43:52.764Z,7.82
2018-12-25T10:44:52.790Z,7.70
2018-12-25T10:45:52.785Z,7.82
2018-12-25T10:46:52.736Z,7.70
2018-12-25T10:47:52.725Z,7.69
2018-12-25T10:48:52.724Z,7.57
2018-12-25T10:49:52.698Z,7.66
2018-12-25T10:50:52.722Z,7.63
2018-12-25T10:51:52.671Z,7.61
2018-12-25T10:52:52.657Z,7.73
2018-12-25T10:53:52.643Z,7.70
2018-12-25T10:54:52.648Z,7.70
2018-12-25T10:55:52.631Z,7.67
2018-12-25T10:56:52.629Z,7.77
2018-12-25T10:57:52.628Z,7.77
2018-12-25T10:58:52.844Z,7.76
2018-12-25T10:59:52.598Z,7.77
2018-12-25T11:00:52.567Z,7.77
2018-12-25T11:01:52.575Z,7.77
2018-12-25T11:02:53.399Z,7.69
2018-12-25T11:03:52.564Z,7.69
2018-12-25T11:04:54.460Z,7.77
2018-12-25T11:05:52.548Z,7.73
2018-12-25T11:06:56.414Z,7.73
2018-12-25T11:07:52.520Z,7.80
2018-12-25T11:08:52.487Z,7.82
2018-12-25T11:09:52.493Z,7.75
2018-12-25T11:10:53.408Z,7.83
2018-12-25T11:11:52.464Z,7.87
2018-12-25T11:12:52.460Z,8.00
2018-12-25T11:13:54.965Z,8.06
2018-12-25T11:14:53.404Z,8.18
2018-12-25T11:15:53.408Z,8.06
2018-12-25T11:16:52.438Z,8.06
2018-12-25T11:17:52.406Z,8.01
2018-12-25T11:18:52.389Z,8.08
2018-12-25T11:19:54.013Z,8.08
2018-12-25T11:20:52.933Z,7.97
2018-12-25T11:21:52.913Z,7.91
2018-12-25T11:22:52.377Z,7.95
2018-12-25T11:23:52.338Z,8.12
2018-12-25T11:24:52.331Z,8.08
2018-12-25T11:25:52.944Z,7.97
2018-12-25T11:26:52.904Z,8.06
2018-12-25T11:27:53.317Z,7.91
2018-12-25T11:28:52.915Z,8.06
2018-12-25T11:29:52.276Z,8.03
2018-12-25T11:30:54.927Z,7.97
2018-12-25T11:31:52.242Z,8.10
2018-12-25T11:32:52.244Z,8.10
2018-12-25T11:33:52.217Z,8.00
2018-12-25T11:34:53.238Z,8.03
2018-12-25T11:35:52.195Z,7.90
2018-12-25T11:36:52.185Z,8.08
2018-12-25T11:37:52.204Z,7.88
2018-12-25T11:38:52.167Z,7.91
2018-12-25T11:39:52.908Z,7.90
2018-12-25T11:40:52.156Z,7.91
2018-12-25T11:41:52.910Z,7.94
2018-12-25T11:42:52.147Z,7.93
2018-12-25T11:43:52.108Z,7.94
2018-12-25T11:44:52.114Z,7.95
2018-12-25T11:45:59.557Z,7.94
2018-12-25T11:47:01.572Z,7.95
2018-12-25T11:48:02.071Z,7.88
2018-12-25T11:49:00.113Z,7.88
2018-12-25T11:50:00.609Z,7.91
2018-12-25T11:51:00.060Z,7.85
2018-12-25T11:52:00.552Z,7.94
2018-12-25T11:53:45.314Z,7.97
2018-12-25T11:54:45.319Z,7.90
2018-12-25T11:55:54.569Z,7.94
2018-12-25T11:56:45.289Z,7.88
2018-12-25T11:57:45.268Z,7.91
2018-12-25T11:58:47.156Z,7.85
2018-12-25T11:59:45.247Z,7.94
2018-12-25T12:00:47.138Z,7.94
2018-12-25T12:01:46.158Z,7.90
2018-12-25T12:02:45.219Z,7.90
2018-12-25T12:03:47.194Z,7.94
2018-12-25T12:04:47.235Z,7.91
2018-12-25T12:05:47.169Z,7.90
2018-12-25T12:06:45.176Z,7.93
2018-12-25T12:07:47.160Z,7.88
2018-12-25T12:08:46.117Z,7.94
2018-12-25T12:09:46.661Z,7.95
2018-12-25T12:10:45.151Z,7.95
2018-12-25T12:11:46.116Z,7.93
2018-12-25T12:12:45.156Z,7.93
2018-12-25T12:13:45.111Z,7.91
2018-12-25T12:14:46.684Z,7.93
2018-12-25T12:15:45.679Z,7.87
2018-12-25T12:16:45.102Z,7.95
2018-12-25T12:17:45.064Z,8.03
2018-12-25T12:18:45.147Z,8.05
2018-12-25T12:19:45.063Z,7.90
2018-12-25T12:20:45.039Z,7.94
2018-12-25T12:21:45.022Z,7.94
2018-12-25T12:22:45.032Z,7.87
2018-12-25T12:23:45.012Z,7.90
2018-12-25T12:25:51.152Z,7.85
2018-12-25T12:26:51.117Z,7.69
2018-12-25T12:27:52.097Z,7.77
2018-12-25T12:28:51.127Z,7.66
2018-12-25T12:29:52.616Z,7.67
2018-12-25T12:30:51.180Z,7.66
2018-12-25T12:31:52.088Z,7.58
2018-12-25T12:32:51.162Z,7.57
2018-12-25T12:33:53.710Z,7.57
2018-12-25T12:34:51.075Z,7.51
2018-12-25T12:35:51.117Z,7.48
2018-12-25T12:36:52.620Z,7.57
2018-12-25T12:37:51.083Z,7.56
2018-12-25T12:38:51.009Z,7.69
2018-12-25T12:39:51.645Z,7.69
2018-12-25T12:40:51.640Z,7.67
2018-12-25T12:41:54.609Z,7.83
2018-12-25T12:42:52.631Z,7.75
2018-12-25T12:43:51.737Z,7.83
2018-12-25T12:44:52.123Z,7.90
2018-12-25T12:45:51.621Z,7.82
2018-12-25T12:46:51.633Z,7.95
2018-12-25T12:47:51.035Z,7.90
2018-12-25T12:48:51.627Z,8.01
2018-12-25T12:49:50.911Z,7.88
2018-12-25T12:50:51.248Z,7.93
2018-12-25T12:51:51.192Z,7.90
2018-12-25T12:52:51.264Z,7.90
2018-12-25T12:53:51.741Z,7.88
2018-12-25T12:54:50.903Z,7.90
2018-12-25T12:55:50.883Z,7.91
2018-12-25T12:56:51.168Z,7.93
2018-12-25T12:57:50.919Z,7.91
2018-12-25T12:58:50.964Z,7.85
2018-12-25T13:00:47.303Z,7.91
2018-12-25T13:01:45.533Z,7.91
2018-12-25T13:02:48.349Z,7.98
2018-12-25T13:03:45.438Z,7.93
2018-12-25T13:04:45.513Z,7.88
2018-12-25T13:05:45.953Z,7.93
2018-12-25T13:06:45.465Z,7.95
2018-12-25T13:07:44.425Z,7.94
2018-12-25T13:08:44.382Z,7.90
2018-12-25T13:09:44.383Z,7.95
2018-12-25T13:10:45.887Z,7.95
2018-12-25T13:11:44.361Z,7.95
2018-12-25T13:12:44.355Z,7.91
2018-12-25T13:13:44.347Z,7.87
2018-12-25T13:14:44.886Z,7.87
2018-12-25T13:15:44.876Z,7.91
2018-12-25T13:16:44.301Z,7.90
2018-12-25T13:17:45.906Z,7.91
2018-12-25T13:18:44.851Z,7.90
2018-12-25T13:19:45.309Z,7.95
2018-12-25T13:20:46.865Z,7.93
2018-12-25T13:21:44.850Z,7.94
2018-12-25T13:22:53.999Z,7.94
2018-12-25T13:23:45.866Z,7.82
2018-12-25T13:24:44.229Z,7.85
2018-12-25T13:25:45.884Z,7.80
2018-12-25T13:26:44.188Z,7.80
2018-12-25T13:27:44.843Z,7.83
2018-12-25T13:29:38.241Z,7.83
2018-12-25T13:30:37.380Z,7.82
2018-12-25T13:31:38.283Z,7.76
2018-12-25T13:32:37.366Z,7.87
2018-12-25T13:33:37.344Z,7.77
2018-12-25T13:34:37.337Z,7.90
2018-12-25T13:35:37.327Z,7.79
2018-12-25T13:36:37.384Z,7.83
2018-12-25T13:37:37.305Z,7.69
2018-12-25T13:38:37.331Z,7.60
2018-12-25T13:39:37.306Z,7.63
2018-12-25T13:40:37.266Z,7.47
2018-12-25T13:41:38.249Z,7.54
2018-12-25T13:42:37.261Z,7.56